Time;durP1;ratioP1;P1;durP2;ratioP2;P2;SDS_P1;SDS_P2;PMS_P1;PMS_P2;Temp;Humidity;BMP_temperature;BMP_pressure;BME280_temperature;BME280_humidity;BME280_pressure;Samples;Min_cycle;Max_cycle;Signal;HPM_P1;HPM_P2
2022/09/16 00:00:34;;;;;;;13.77;2.38;;;14.90;99.90;;;;;;5033575;28;20038;-63
2022/09/16 00:02:59;;;;;;;16.33;2.05;;;14.80;99.90;;;;;;5033323;28;20052;-63
2022/09/16 00:05:25;;;;;;;5.60;1.30;;;14.80;99.90;;;;;;5016022;28;20046;-64
2022/09/16 00:07:51;;;;;;;10.15;1.60;;;14.60;99.90;;;;;;5033114;28;20083;-63
2022/09/16 00:10:17;;;;;;;6.97;1.42;;;14.60;99.90;;;;;;5031717;28;20062;-63
2022/09/16 00:12:42;;;;;;;14.95;2.00;;;14.50;99.90;;;;;;5032638;28;20044;-62
2022/09/16 00:15:11;;;;;;;11.43;2.10;;;14.40;99.90;;;;;;5033111;28;20105;-62
2022/09/16 00:17:37;;;;;;;13.70;1.80;;;14.30;99.90;;;;;;5034295;28;20037;-63
2022/09/16 00:20:03;;;;;;;8.02;1.50;;;14.20;99.90;;;;;;5029710;28;20056;-63
2022/09/16 00:22:29;;;;;;;18.20;2.25;;;14.20;99.90;;;;;;5027117;28;20116;-62
2022/09/16 00:24:55;;;;;;;13.45;1.98;;;14.10;99.90;;;;;;5017152;28;20124;-62
2022/09/16 00:27:20;;;;;;;16.98;2.15;;;14.00;99.90;;;;;;5024554;28;20554;-62
2022/09/16 00:29:46;;;;;;;14.82;2.60;;;13.90;99.90;;;;;;5032949;28;20409;-62
2022/09/16 00:32:12;;;;;;;12.88;1.73;;;13.80;99.90;;;;;;5032101;28;20423;-63
2022/09/16 00:34:38;;;;;;;16.25;2.25;;;13.90;99.90;;;;;;5033321;28;20025;-62
2022/09/16 00:37:06;;;;;;;16.30;2.00;;;13.90;99.90;;;;;;5032662;28;20087;-62
2022/09/16 00:39:31;;;;;;;14.52;2.25;;;13.90;99.90;;;;;;5032709;28;20041;-62
2022/09/16 00:41:57;;;;;;;13.77;1.73;;;14.00;99.90;;;;;;5033726;28;20053;-62
2022/09/16 00:44:52;;;;;;;11.05;2.10;;;14.20;99.90;;;;;;5033122;28;20041;-62
2022/09/16 00:47:33;;;;;;;8.30;1.42;;;14.40;99.90;;;;;;5031885;28;20706;-62
2022/09/16 00:50:05;;;;;;;14.30;2.25;;;14.70;99.90;;;;;;5033115;28;20056;-62
2022/09/16 00:52:32;;;;;;;10.77;2.47;;;14.80;99.90;;;;;;5015299;28;20107;-63
2022/09/16 00:55:02;;;;;;;9.20;1.45;;;14.80;99.90;;;;;;5033502;28;20033;-63
2022/09/16 00:57:27;;;;;;;12.57;2.00;;;14.90;99.90;;;;;;5030670;28;20029;-62
2022/09/16 00:59:55;;;;;;;9.43;1.80;;;14.90;99.90;;;;;;5031862;28;20491;-63
2022/09/16 01:02:22;;;;;;;8.43;1.80;;;15.00;99.90;;;;;;5032836;28;20441;-63
2022/09/16 01:04:54;;;;;;;3.58;1.10;;;15.00;99.90;;;;;;5014803;28;20098;-63
2022/09/16 01:07:27;;;;;;;7.00;1.30;;;15.00;99.90;;;;;;5032728;28;20037;-63
2022/09/16 01:09:53;;;;;;;4.90;1.27;;;15.00;99.90;;;;;;5029230;28;20510;-63
2022/09/16 01:12:19;;;;;;;6.93;1.40;;;15.00;99.90;;;;;;5029684;28;20056;-63
2022/09/16 01:14:54;;;;;;;4.93;1.60;;;15.00;99.90;;;;;;5031736;28;20045;-63
2022/09/16 01:17:50;;;;;;;3.38;0.90;;;15.00;99.90;;;;;;5032631;28;20037;-63
2022/09/16 01:20:45;;;;;;;4.63;1.17;;;15.00;99.90;;;;;;5028990;28;20045;-63
2022/09/16 01:23:44;;;;;;;4.18;1.00;;;15.00;99.90;;;;;;5032059;28;20080;-63
2022/09/16 01:26:37;;;;;;;3.70;1.15;;;15.00;99.90;;;;;;5032918;28;20049;-63
2022/09/16 01:29:20;;;;;;;6.40;1.10;;;15.10;99.90;;;;;;5002869;28;20110;-63
2022/09/16 01:31:55;;;;;;;14.27;2.22;;;15.10;99.90;;;;;;5031339;28;20388;-63
2022/09/16 01:34:38;;;;;;;7.75;1.80;;;15.10;99.90;;;;;;5031903;28;20092;-63
2022/09/16 01:37:06;;;;;;;9.82;1.73;;;15.00;99.90;;;;;;5032436;28;20045;-63
2022/09/16 01:39:52;;;;;;;15.18;3.00;;;14.80;99.90;;;;;;5029427;28;20049;-63
2022/09/16 01:42:37;;;;;;;11.52;2.00;;;14.70;99.90;;;;;;5018760;28;20049;-63
2022/09/16 01:45:25;;;;;;;9.73;1.73;;;14.70;99.90;;;;;;5031978;28;20040;-63
2022/09/16 01:48:09;;;;;;;9.80;1.90;;;14.70;99.90;;;;;;5032161;28;20164;-63
2022/09/16 01:50:41;;;;;;;14.27;2.00;;;14.70;99.90;;;;;;5013314;28;20487;-63
2022/09/16 01:53:28;;;;;;;12.00;2.00;;;14.80;99.90;;;;;;5031467;28;20080;-63
2022/09/16 01:56:04;;;;;;;;;;;14.80;99.90;;;;;;5032642;28;20050;-63
2022/09/16 01:59:07;;;;;;;10.75;1.92;;;14.80;99.90;;;;;;5031244;28;19924;-63
2022/09/16 02:01:44;;;;;;;11.70;1.83;;;14.80;99.90;;;;;;5027198;28;20056;-63
2022/09/16 02:04:22;;;;;;;11.65;1.50;;;14.90;99.90;;;;;;5030943;28;20048;-63
2022/09/16 02:06:50;;;;;;;9.57;1.60;;;15.00;99.90;;;;;;5030315;28;20545;-63
2022/09/16 02:09:24;;;;;;;7.05;1.60;;;15.00;1.00;;;;;;5027836;28;20041;-63
2022/09/16 02:11:53;;;;;;;11.27;1.80;;;15.10;99.90;;;;;;5030238;28;20060;-63
2022/09/16 02:14:23;;;;;;;9.82;2.15;;;15.10;99.90;;;;;;5031375;28;20479;-63
2022/09/16 02:17:03;;;;;;;6.00;1.60;;;15.10;99.90;;;;;;5031722;28;20037;-63
2022/09/16 02:19:35;;;;;;;9.82;1.75;;;15.30;99.90;;;;;;5030088;28;20407;-63
2022/09/16 02:22:06;;;;;;;10.82;1.95;;;15.20;1.00;;;;;;5031163;28;20048;-63
2022/09/16 02:24:34;;;;;;;14.80;2.00;;;15.00;99.90;;;;;;5032025;28;20404;-63
2022/09/16 02:27:03;;;;;;;10.38;2.05;;;14.90;1.00;;;;;;5031561;28;20037;-64
2022/09/16 02:29:36;;;;;;;10.38;2.00;;;15.00;1.00;;;;;;5030846;28;20121;-63
2022/09/16 02:32:04;;;;;;;9.13;1.50;;;14.90;1.00;;;;;;5030267;28;20086;-63
2022/09/16 02:34:36;;;;;;;8.05;1.33;;;14.90;99.90;;;;;;5030815;28;20483;-64
2022/09/16 02:37:10;;;;;;;6.53;1.25;;;14.80;1.00;;;;;;5031942;28;20491;-64
2022/09/16 02:39:39;;;;;;;8.75;1.70;;;14.80;99.90;;;;;;5026973;28;20046;-63
2022/09/16 02:42:06;;;;;;;4.72;1.20;;;14.80;1.00;;;;;;5029601;28;20045;-63
2022/09/16 02:44:33;;;;;;;8.95;1.42;;;14.80;99.90;;;;;;5030834;28;20041;-64
2022/09/16 02:47:10;;;;;;;6.40;1.40;;;14.90;99.90;;;;;;5031521;28;20039;-63
2022/09/16 02:49:51;;;;;;;7.50;1.40;;;14.80;1.00;;;;;;5030595;28;20045;-63
2022/09/16 02:52:34;;;;;;;10.43;1.65;;;14.60;99.90;;;;;;5030593;28;20029;-63
2022/09/16 02:55:04;;;;;;;10.65;1.90;;;14.50;99.90;;;;;;5031244;28;20034;-63
2022/09/16 02:57:31;;;;;;;19.00;2.45;;;14.40;1.00;;;;;;5031484;28;20041;-63
2022/09/16 02:59:56;;;;;;;17.52;2.90;;;14.40;38.50;;;;;;5030628;28;20054;-63
2022/09/16 03:02:22;;;;;;;11.57;2.03;;;14.40;1.00;;;;;;5027836;28;20037;-63
2022/09/16 03:04:48;;;;;;;8.85;1.98;;;14.40;1.00;;;;;;5030044;28;20034;-63
2022/09/16 03:07:14;;;;;;;8.15;1.88;;;14.30;1.00;;;;;;5030559;28;20041;-63
2022/09/16 03:09:44;;;;;;;16.92;1.88;;;14.30;99.90;;;;;;5029209;28;20045;-63
2022/09/16 03:12:27;;;;;;;11.73;1.90;;;14.40;1.00;;;;;;5031125;28;20396;-64
2022/09/16 03:15:17;;;;;;;9.85;2.38;;;14.50;1.00;;;;;;5030307;28;20414;-63
2022/09/16 03:18:03;;;;;;;11.00;2.38;;;14.50;99.90;;;;;;5029001;28;20410;-63
2022/09/16 03:20:47;;;;;;;9.60;1.75;;;14.60;99.90;;;;;;5029872;28;20099;-63
2022/09/16 03:23:20;;;;;;;12.63;1.77;;;14.70;1.00;;;;;;5030742;28;20048;-63
2022/09/16 03:26:12;;;;;;;9.38;2.15;;;14.80;99.90;;;;;;5031009;28;20460;-63
2022/09/16 03:28:55;;;;;;;10.27;1.98;;;15.00;34.00;;;;;;5030973;28;20147;-63
2022/09/16 03:31:30;;;;;;;17.95;2.50;;;15.20;99.90;;;;;;5014186;28;20478;-63
2022/09/16 03:34:17;;;;;;;17.58;2.58;;;15.20;99.90;;;;;;5030547;28;20037;-63
2022/09/16 03:36:44;;;;;;;;;;;15.20;99.90;;;;;;5030484;28;20518;-63
2022/09/16 03:39:11;;;;;;;12.73;2.55;;;15.10;1.00;;;;;;5030318;28;19959;-63
2022/09/16 03:41:38;;;;;;;10.77;2.55;;;15.10;99.90;;;;;;5030415;28;20538;-63
2022/09/16 03:44:03;;;;;;;8.35;2.00;;;15.10;96.90;;;;;;5029848;28;20399;-63
2022/09/16 03:46:29;;;;;;;14.75;2.08;;;15.50;1.00;;;;;;5030250;28;20030;-63
2022/09/16 03:48:56;;;;;;;8.32;1.48;;;15.10;99.90;;;;;;5029485;28;20108;-64
2022/09/16 03:51:23;;;;;;;10.18;1.90;;;15.10;99.90;;;;;;5030517;28;20395;-63
2022/09/16 03:53:50;;;;;;;9.63;2.03;;;15.10;33.50;;;;;;5012434;28;20047;-63
2022/09/16 03:56:15;;;;;;;8.05;1.15;;;14.90;1.00;;;;;;5030667;28;20045;-63
2022/09/16 03:58:41;;;;;;;10.05;2.42;;;14.90;99.90;;;;;;5030784;28;20064;-63
2022/09/16 04:01:06;;;;;;;2.33;1.10;;;14.90;59.70;;;;;;5030920;28;20051;-63
2022/09/16 04:03:36;;;;;;;10.98;1.60;;;14.80;1.00;;;;;;5033495;28;20033;-63
2022/09/16 04:06:02;;;;;;;4.65;1.23;;;14.80;1.00;;;;;;5033653;28;20483;-63
2022/09/16 04:08:27;;;;;;;5.82;1.45;;;14.80;1.00;;;;;;5032569;28;20116;-63
2022/09/16 04:10:58;;;;;;;6.53;1.50;;;14.80;1.00;;;;;;5034054;28;20049;-63
2022/09/16 04:13:25;;;;;;;8.95;1.73;;;14.60;1.00;;;;;;5018308;28;20546;-63
2022/09/16 04:15:51;;;;;;;12.10;2.25;;;14.60;1.00;;;;;;5029695;28;20037;-63
2022/09/16 04:18:17;;;;;;;13.38;2.33;;;14.60;1.00;;;;;;5031940;28;20039;-63
2022/09/16 04:20:42;;;;;;;9.13;2.13;;;14.70;1.00;;;;;;5033012;28;20041;-63
2022/09/16 04:23:08;;;;;;;10.77;1.90;;;14.70;1.00;;;;;;5033438;28;20045;-63
2022/09/16 04:25:34;;;;;;;9.07;2.30;;;14.70;1.00;;;;;;5032042;28;20029;-63
2022/09/16 04:27:59;;;;;;;12.95;1.83;;;14.70;1.00;;;;;;5034124;28;20034;-63
2022/09/16 04:30:25;;;;;;;10.85;1.83;;;14.70;1.00;;;;;;5032174;28;20048;-63
2022/09/16 04:32:55;;;;;;;11.10;2.22;;;14.70;1.00;;;;;;5031644;28;20060;-63
2022/09/16 04:35:21;;;;;;;15.95;2.25;;;14.70;1.00;;;;;;5031900;28;20033;-63
2022/09/16 04:37:47;;;;;;;8.73;1.75;;;14.60;1.00;;;;;;5031703;28;20033;-63
2022/09/16 04:40:13;;;;;;;13.45;1.90;;;14.70;1.00;;;;;;5033374;28;20138;-63
2022/09/16 04:42:39;;;;;;;10.15;1.98;;;14.60;1.00;;;;;;5011253;28;20076;-63
2022/09/16 04:45:05;;;;;;;8.60;1.73;;;14.60;1.00;;;;;;5026957;28;20049;-63
2022/09/16 04:47:31;;;;;;;7.50;1.83;;;14.60;1.00;;;;;;5030512;28;20045;-63
2022/09/16 04:49:56;;;;;;;12.57;1.80;;;14.70;18.00;;;;;;5027163;28;20048;-63
2022/09/16 04:52:22;;;;;;;26.05;3.05;;;14.80;16.90;;;;;;5027129;28;20056;-63
2022/09/16 04:54:48;;;;;;;9.70;1.73;;;14.80;50.80;;;;;;5031892;28;20034;-63
2022/09/16 04:57:13;;;;;;;11.55;2.25;;;14.90;99.90;;;;;;5031681;28;20081;-64
2022/09/16 04:59:39;;;;;;;15.70;2.42;;;14.90;99.90;;;;;;5033420;28;20099;-64
2022/09/16 05:02:04;;;;;;;12.90;2.30;;;15.00;99.90;;;;;;5028905;28;20046;-63
2022/09/16 05:04:30;;;;;;;15.20;2.50;;;15.00;99.90;;;;;;5030924;28;20052;-63
2022/09/16 05:06:55;;;;;;;14.45;2.33;;;14.90;1.00;;;;;;5028372;28;20042;-63
2022/09/16 05:09:21;;;;;;;13.35;2.67;;;14.80;99.90;;;;;;5022797;28;20041;-64
2022/09/16 05:11:47;;;;;;;11.25;2.30;;;14.70;1.00;;;;;;5026139;28;20085;-63
2022/09/16 05:14:16;;;;;;;12.32;2.20;;;14.60;1.00;;;;;;5027888;28;20422;-63
2022/09/16 05:16:42;;;;;;;10.82;2.08;;;14.60;1.00;;;;;;5028362;28;20037;-63
2022/09/16 05:19:10;;;;;;;11.00;2.10;;;14.60;99.90;;;;;;5021299;28;20479;-68
2022/09/16 05:21:37;;;;;;;10.02;2.22;;;14.60;99.90;;;;;;5023926;28;20386;-62
2022/09/16 05:24:07;;;;;;;11.05;2.20;;;14.50;99.90;;;;;;5031602;28;20082;-62
2022/09/16 05:26:34;;;;;;;8.50;1.50;;;14.50;99.90;;;;;;5028372;28;20040;-62
2022/09/16 05:29:20;;;;;;;12.73;1.70;;;14.70;1.00;;;;;;5031849;28;20029;-66
2022/09/16 05:31:46;;;;;;;;;;;14.70;99.90;;;;;;5030973;28;20060;-63
2022/09/16 05:34:23;;;;;;;4.33;1.60;;;14.70;99.90;;;;;;5028841;28;20290;-64
2022/09/16 05:36:52;;;;;;;4.40;1.33;;;14.60;34.10;;;;;;5030946;28;20080;-64
2022/09/16 05:39:18;;;;;;;4.90;1.23;;;14.60;99.90;;;;;;5020810;28;20076;-62
2022/09/16 05:41:44;;;;;;;7.38;1.45;;;14.70;99.90;;;;;;5018696;28;20049;-63
2022/09/16 05:44:09;;;;;;;7.05;1.60;;;14.80;99.90;;;;;;5028553;28;20033;-64
2022/09/16 05:46:36;;;;;;;10.13;1.80;;;14.80;1.00;;;;;;5029806;28;20514;-66
2022/09/16 05:49:01;;;;;;;6.90;1.55;;;14.80;1.00;;;;;;5029892;28;20495;-63
2022/09/16 05:51:27;;;;;;;6.25;1.42;;;14.80;1.00;;;;;;5031125;28;20045;-66
2022/09/16 05:53:54;;;;;;;10.32;2.25;;;14.80;1.00;;;;;;5029237;28;20411;-64
2022/09/16 05:56:25;;;;;;;9.02;1.92;;;14.90;17.10;;;;;;5026736;28;20052;-64
2022/09/16 05:58:52;;;;;;;10.30;1.98;;;14.80;99.90;;;;;;5031521;28;20044;-64
2022/09/16 06:01:20;;;;;;;14.55;2.55;;;15.00;99.90;;;;;;5030700;28;20041;-64
2022/09/16 06:03:47;;;;;;;16.35;2.30;;;14.50;1.00;;;;;;5028413;28;20034;-61
2022/09/16 06:06:21;;;;;;;14.02;2.10;;;14.40;99.90;;;;;;5029645;28;20029;-63
2022/09/16 06:08:46;;;;;;;5.97;1.30;;;14.40;99.90;;;;;;5022027;28;20522;-64
2022/09/16 06:11:12;;;;;;;11.05;2.05;;;14.50;1.00;;;;;;5025001;28;20100;-64
2022/09/16 06:13:38;;;;;;;9.55;2.15;;;14.50;1.00;;;;;;5027736;28;20038;-64
2022/09/16 06:16:05;;;;;;;10.57;2.33;;;14.50;1.00;;;;;;5028787;28;20064;-64
2022/09/16 06:18:32;;;;;;;11.95;2.38;;;14.70;99.90;;;;;;5029450;28;20037;-64
2022/09/16 06:21:06;;;;;;;10.65;1.90;;;14.70;1.00;;;;;;5026163;28;20041;-64
2022/09/16 06:23:32;;;;;;;6.97;1.52;;;14.80;99.50;;;;;;5028744;28;20041;-64
2022/09/16 06:26:03;;;;;;;11.02;1.40;;;14.90;1.00;;;;;;5025260;28;20045;-64
2022/09/16 06:28:29;;;;;;;9.63;1.80;;;14.80;99.90;;;;;;5029588;28;20526;-64
2022/09/16 06:31:12;;;;;;;8.95;1.42;;;14.80;1.00;;;;;;5029428;28;20176;-64
2022/09/16 06:33:38;;;;;;;10.77;1.92;;;14.90;1.00;;;;;;5006297;28;20038;-64
2022/09/16 06:36:09;;;;;;;11.77;2.78;;;14.80;1.00;;;;;;5021686;28;20042;-64
2022/09/16 06:38:35;;;;;;;8.82;1.77;;;14.80;1.00;;;;;;5027268;28;20045;-64
2022/09/16 06:41:03;;;;;;;9.90;2.10;;;14.80;1.00;;;;;;5022394;28;20465;-64
2022/09/16 06:43:29;;;;;;;11.73;2.20;;;14.80;1.00;;;;;;5020327;28;20046;-64
2022/09/16 06:45:59;;;;;;;14.15;2.10;;;14.90;7.00;;;;;;5025712;28;20124;-64
2022/09/16 06:48:26;;;;;;;10.45;2.70;;;15.00;99.90;;;;;;5030034;28;20056;-64
2022/09/16 06:51:03;;;;;;;14.77;2.65;;;15.10;99.90;;;;;;5023915;28;20176;-65
2022/09/16 06:53:29;;;;;;;13.77;2.03;;;15.20;23.20;;;;;;5028583;28;20128;-64
2022/09/16 06:55:58;;;;;;;17.00;1.98;;;15.20;99.90;;;;;;5030070;28;20063;-64
2022/09/16 06:58:24;;;;;;;5.88;1.70;;;15.30;1.00;;;;;;5029759;28;20033;-65
2022/09/16 07:00:50;;;;;;;9.43;1.75;;;15.40;99.90;;;;;;5024681;28;20048;-65
2022/09/16 07:03:16;;;;;;;14.85;2.50;;;15.50;99.90;;;;;;5026089;28;20482;-64
2022/09/16 07:05:41;;;;;;;11.27;2.15;;;15.60;99.90;;;;;;5025107;28;20045;-64
2022/09/16 07:08:07;;;;;;;11.80;2.42;;;15.60;99.90;;;;;;5025461;28;20044;-65
2022/09/16 07:10:33;;;;;;;13.10;2.30;;;15.70;1.00;;;;;;5025606;28;20053;-65
2022/09/16 07:12:58;;;;;;;11.30;2.22;;;15.60;18.70;;;;;;5027022;28;20038;-64
2022/09/16 07:15:24;;;;;;;10.32;1.90;;;15.70;56.90;;;;;;5024563;28;20087;-65
2022/09/16 07:17:54;;;;;;;17.60;2.83;;;15.80;99.90;;;;;;5025908;28;20994;-65
2022/09/16 07:20:19;;;;;;;13.65;2.30;;;15.80;99.90;;;;;;5025079;28;20052;-65
2022/09/16 07:22:49;;;;;;;22.63;3.42;;;15.60;20.00;;;;;;5023834;28;20471;-64
2022/09/16 07:25:15;;;;;;;14.32;2.55;;;15.40;1.00;;;;;;5024962;28;20037;-65
2022/09/16 07:27:41;;;;;;;10.77;2.38;;;15.30;1.00;;;;;;5024751;28;20034;-65
2022/09/16 07:30:07;;;;;;;15.57;2.75;;;15.20;1.00;;;;;;5026262;28;20153;-64
2022/09/16 07:32:33;;;;;;;14.77;2.50;;;15.20;1.00;;;;;;5024248;28;20176;-64
2022/09/16 07:34:58;;;;;;;13.85;2.42;;;15.20;42.10;;;;;;5026613;28;20167;-64
2022/09/16 07:37:24;;;;;;;15.43;2.53;;;15.30;15.60;;;;;;5028058;28;20274;-65
2022/09/16 07:39:49;;;;;;;11.30;2.95;;;15.40;1.00;;;;;;5030215;28;20041;-64
2022/09/16 07:42:15;;;;;;;15.63;2.17;;;15.50;1.00;;;;;;5026964;28;20041;-65
2022/09/16 07:44:40;;;;;;;8.77;2.25;;;15.60;99.90;;;;;;5026318;28;20045;-66
2022/09/16 07:47:06;;;;;;;8.75;1.90;;;15.90;99.90;;;;;;5025346;28;20450;-64
2022/09/16 07:49:31;;;;;;;15.20;1.95;;;15.80;99.90;;;;;;5027058;28;20395;-65
2022/09/16 07:51:57;;;;;;;9.98;1.90;;;15.90;77.70;;;;;;5029643;28;20403;-65
2022/09/16 07:54:22;;;;;;;4.90;1.67;;;16.30;1.00;;;;;;5030961;28;20787;-65
2022/09/16 07:56:48;;;;;;;6.85;1.30;;;16.10;1.00;;;;;;5027583;28;20149;-65
2022/09/16 07:59:16;;;;;;;14.52;1.95;;;16.20;99.90;;;;;;5025741;28;20490;-65
2022/09/16 08:01:42;;;;;;;10.10;1.90;;;16.70;99.90;;;;;;5028111;28;20060;-65
2022/09/16 08:04:07;;;;;;;12.80;2.13;;;16.50;99.90;;;;;;5031753;28;20040;-64
2022/09/16 08:06:37;;;;;;;9.60;1.63;;;16.60;99.90;;;;;;5033532;28;20048;-64
2022/09/16 08:09:03;;;;;;;9.07;1.95;;;16.80;99.90;;;;;;5033858;28;20040;-64
2022/09/16 08:11:29;;;;;;;9.18;2.00;;;16.90;99.90;;;;;;5033244;28;20562;-64
2022/09/16 08:13:58;;;;;;;11.45;1.80;;;16.90;99.90;;;;;;5034191;28;20045;-64
2022/09/16 08:16:24;;;;;;;9.38;2.33;;;16.90;99.90;;;;;;5033352;28;20120;-64
2022/09/16 08:18:52;;;;;;;9.80;2.10;;;17.10;99.90;;;;;;5034144;28;20069;-64
2022/09/16 08:21:21;;;;;;;10.15;2.35;;;17.20;99.90;;;;;;5033664;28;20045;-64
2022/09/16 08:23:47;;;;;;;12.95;2.53;;;17.00;99.90;;;;;;5033847;28;20044;-64
2022/09/16 08:26:14;;;;;;;10.35;2.15;;;16.70;99.90;;;;;;5032587;28;20034;-64
2022/09/16 08:28:41;;;;;;;14.07;2.92;;;16.50;99.90;;;;;;5015965;28;20042;-64
2022/09/16 08:31:08;;;;;;;7.63;1.73;;;16.40;99.90;;;;;;5033289;28;20103;-64
2022/09/16 08:33:34;;;;;;;6.70;2.28;;;16.30;99.90;;;;;;5033112;28;20033;-64
2022/09/16 08:36:18;;;;;;;7.70;1.67;;;16.50;99.90;;;;;;5033709;28;20438;-64
2022/09/16 08:38:46;;;;;;;6.82;1.88;;;16.70;99.90;;;;;;5033535;28;20033;-64
2022/09/16 08:41:24;;;;;;;11.27;2.08;;;16.90;76.30;;;;;;5033291;28;20056;-64
2022/09/16 08:44:06;;;;;;;9.73;1.90;;;17.10;26.10;;;;;;5033196;28;20519;-64
2022/09/16 08:46:45;;;;;;;5.70;1.60;;;17.30;4.90;;;;;;5030005;28;20048;-64
2022/09/16 08:49:11;;;;;;;11.65;2.00;;;17.40;1.00;;;;;;5030711;28;20042;-64
2022/09/16 08:51:36;;;;;;;14.13;2.05;;;17.40;1.00;;;;;;5031304;28;20052;-64
2022/09/16 08:54:27;;;;;;;10.75;2.15;;;17.50;1.00;;;;;;5032671;28;20399;-64
2022/09/16 08:56:56;;;;;;;8.43;2.17;;;17.70;1.00;;;;;;5026223;28;20128;-64
2022/09/16 08:59:26;;;;;;;15.02;2.17;;;17.60;1.00;;;;;;5032785;28;20095;-64
2022/09/16 09:02:03;;;;;;;6.07;1.90;;;17.20;14.30;;;;;;5029898;28;20049;-65
2022/09/16 09:04:30;;;;;;;8.30;2.25;;;16.70;14.60;;;;;;5028469;28;20033;-64
2022/09/16 09:06:58;;;;;;;9.35;1.92;;;16.40;20.70;;;;;;5028629;28;20045;-64
2022/09/16 09:09:35;;;;;;;9.27;1.83;;;16.40;15.00;;;;;;5026694;28;20050;-64
2022/09/16 09:12:17;;;;;;;7.15;1.58;;;16.60;2.90;;;;;;5026642;28;20049;-64
2022/09/16 09:15:00;;;;;;;11.18;2.08;;;16.80;16.60;;;;;;5003473;28;20313;-64
2022/09/16 09:18:12;;;;;;;5.40;1.45;;;16.80;39.40;;;;;;5031469;28;20495;-64
2022/09/16 09:20:54;;;;;;;8.35;1.85;;;16.60;62.20;;;;;;5012536;28;20068;-62
2022/09/16 09:23:50;;;;;;;9.50;2.13;;;17.00;90.40;;;;;;5030878;28;20098;-64
2022/09/16 09:26:48;;;;;;;3.70;1.10;;;16.90;51.90;;;;;;5026750;28;20672;-64
2022/09/16 09:29:29;;;;;;;12.43;2.25;;;16.50;22.80;;;;;;5028008;28;20053;-63
2022/09/16 09:32:18;;;;;;;6.82;1.90;;;16.50;54.00;;;;;;5020389;28;20132;-62
2022/09/16 09:35:11;;;;;;;10.05;1.98;;;16.80;42.90;;;;;;5029675;28;20129;-63
2022/09/16 09:37:37;;;;;;;7.93;1.63;;;16.90;49.70;;;;;;5009694;28;20048;-62
2022/09/16 09:40:38;;;;;;;6.25;1.65;;;16.80;10.70;;;;;;5027968;28;20403;-63
2022/09/16 09:43:17;;;;;;;9.52;2.00;;;16.70;47.00;;;;;;5027024;28;20484;-62
2022/09/16 09:45:55;;;;;;;1.75;0.93;;;16.70;70.50;;;;;;5031274;28;20091;-61
2022/09/16 09:48:52;;;;;;;7.72;2.08;;;16.60;23.70;;;;;;5029695;28;20044;-63
2022/09/16 09:51:28;;;;;;;13.38;1.80;;;16.70;52.00;;;;;;5011109;28;20061;-63
2022/09/16 09:54:12;;;;;;;8.13;1.70;;;17.40;90.80;;;;;;5011520;28;20053;-63
2022/09/16 09:56:44;;;;;;;8.27;2.13;;;16.90;99.90;;;;;;5029363;28;20053;-63
2022/09/16 09:59:25;;;;;;;6.45;1.88;;;16.80;99.90;;;;;;5025911;28;20093;-63
2022/09/16 10:01:55;;;;;;;7.95;2.08;;;16.60;99.90;;;;;;5023469;28;20053;-64
2022/09/16 10:04:21;;;;;;;7.95;1.70;;;17.10;99.90;;;;;;5022944;28;20072;-63
2022/09/16 10:06:48;;;;;;;6.13;1.67;;;17.00;99.90;;;;;;5024972;28;20119;-62
2022/09/16 10:09:15;;;;;;;7.13;1.35;;;17.10;99.90;;;;;;5025747;28;20064;-62
2022/09/16 10:11:56;;;;;;;4.57;1.45;;;17.10;74.80;;;;;;5018369;28;20041;-63
2022/09/16 10:14:36;;;;;;;7.00;1.48;;;17.10;22.20;;;;;;5030407;28;20041;-62
2022/09/16 10:17:12;;;;;;;5.78;1.95;;;17.20;9.40;;;;;;5029372;28;20397;-62
2022/09/16 10:19:54;;;;;;;6.07;1.75;;;17.20;1.00;;;;;;5027070;28;20040;-62
2022/09/16 10:22:28;;;;;;;8.73;2.08;;;17.20;1.00;;;;;;5031606;28;20041;-62
2022/09/16 10:25:19;;;;;;;8.77;2.05;;;17.10;1.00;;;;;;5028297;28;20120;-62
2022/09/16 10:27:55;;;;;;;9.68;1.83;;;17.70;29.10;;;;;;5026246;28;20766;-62
2022/09/16 10:30:21;;;;;;;3.78;1.38;;;17.60;77.50;;;;;;5026870;28;20056;-62
2022/09/16 10:33:11;;;;;;;4.07;1.17;;;17.40;34.50;;;;;;5025605;28;20080;-62
2022/09/16 10:35:39;;;;;;;8.02;2.05;;;17.00;1.40;;;;;;5029529;28;20052;-63
2022/09/16 10:38:09;;;;;;;9.90;1.70;;;17.00;1.00;;;;;;5028428;28;20044;-65
2022/09/16 10:40:35;;;;;;;9.70;1.55;;;17.30;45.80;;;;;;5025742;28;20041;-65
2022/09/16 10:43:12;;;;;;;10.73;1.73;;;17.30;50.90;;;;;;5025507;28;20091;-65
2022/09/16 10:45:45;;;;;;;6.32;1.70;;;17.00;45.70;;;;;;5028472;28;20580;-65
2022/09/16 10:48:14;;;;;;;10.23;2.05;;;17.10;74.50;;;;;;5026791;28;20060;-63
2022/09/16 10:51:01;;;;;;;10.13;1.88;;;17.10;81.60;;;;;;5028386;28;20069;-63
2022/09/16 10:53:38;;;;;;;6.18;1.42;;;17.00;75.30;;;;;;5028295;28;20056;-64
2022/09/16 10:56:06;;;;;;;8.27;1.20;;;17.20;77.50;;;;;;5025281;28;20034;-63
2022/09/16 10:58:32;;;;;;;7.25;1.63;;;16.90;44.20;;;;;;5027122;28;20033;-63
2022/09/16 11:01:03;;;;;;;8.90;1.67;;;17.10;99.90;;;;;;5025818;28;20430;-63
2022/09/16 11:04:06;;;;;;;6.88;1.50;;;16.60;99.90;;;;;;5027932;28;20459;-63
2022/09/16 11:06:35;;;;;;;6.05;1.50;;;16.50;99.90;;;;;;5025910;28;20068;-63
2022/09/16 11:09:04;;;;;;;8.02;2.00;;;16.80;99.90;;;;;;5027099;28;20033;-62
2022/09/16 11:11:49;;;;;;;16.60;1.63;;;17.00;98.20;;;;;;5020309;28;20057;-68
2022/09/16 11:14:45;;;;;;;10.63;1.67;;;17.10;85.10;;;;;;5020914;28;20037;-63
2022/09/16 11:17:40;;;;;;;8.25;1.45;;;17.00;68.80;;;;;;5030656;28;20042;-63
2022/09/16 11:20:30;;;;;;;10.13;1.75;;;17.20;99.90;;;;;;5030823;28;20048;-63
2022/09/16 11:22:55;;;;;;;9.63;1.80;;;16.80;93.70;;;;;;5013366;28;20495;-63
2022/09/16 11:25:54;;;;;;;5.43;1.85;;;17.00;99.90;;;;;;5030641;28;20041;-63
2022/09/16 11:28:44;;;;;;;8.48;1.63;;;17.30;59.50;;;;;;5030977;28;20052;-63
2022/09/16 11:31:43;;;;;;;8.75;2.20;;;17.40;27.10;;;;;;5030500;28;20048;-63
2022/09/16 11:34:38;;;;;;;8.38;2.03;;;17.50;12.60;;;;;;5030460;28;20049;-63
2022/09/16 11:37:42;;;;;;;8.93;1.80;;;17.60;1.00;;;;;;5030960;28;20041;-63
2022/09/16 11:40:21;;;;;;;9.63;2.10;;;17.60;1.00;;;;;;5012954;28;20514;-63
2022/09/16 11:43:14;;;;;;;6.80;1.40;;;17.40;18.90;;;;;;5030964;28;20052;-65
2022/09/16 11:45:56;;;;;;;9.18;1.80;;;16.80;22.10;;;;;;5012861;28;20048;-66
2022/09/16 11:48:28;;;;;;;10.02;1.55;;;16.70;30.30;;;;;;5012650;28;20084;-65
2022/09/16 11:51:11;;;;;;;10.25;1.88;;;17.00;20.90;;;;;;5013005;28;20049;-66
2022/09/16 11:54:01;;;;;;;9.23;2.17;;;17.10;4.10;;;;;;5013014;28;20087;-65
2022/09/16 11:56:44;;;;;;;9.02;1.67;;;17.30;1.90;;;;;;5030441;28;20044;-64
2022/09/16 11:59:42;;;;;;;14.05;1.95;;;17.30;1.00;;;;;;5009878;28;20046;-64
2022/09/16 12:02:18;;;;;;;10.65;1.63;;;17.40;1.00;;;;;;4995750;28;20049;-66
2022/09/16 12:05:04;;;;;;;11.82;1.77;;;17.50;1.00;;;;;;5013240;28;20506;-64
2022/09/16 12:07:44;;;;;;;7.85;1.67;;;17.30;1.00;;;;;;4983178;28;20053;-65
2022/09/16 12:10:38;;;;;;;11.07;2.10;;;17.30;1.00;;;;;;5012098;28;20046;-65
2022/09/16 12:13:21;;;;;;;9.40;2.10;;;17.30;1.00;;;;;;5030466;28;20053;-64
2022/09/16 12:16:01;;;;;;;7.45;1.70;;;17.40;1.00;;;;;;5012576;28;20045;-65
2022/09/16 12:18:36;;;;;;;9.80;1.63;;;17.70;9.20;;;;;;5030264;28;20036;-65
2022/09/16 12:21:19;;;;;;;10.50;1.80;;;17.70;1.00;;;;;;5010340;28;20053;-65
2022/09/16 12:23:50;;;;;;;3.80;1.45;;;17.40;1.00;;;;;;5016213;28;20142;-65
2022/09/16 12:26:24;;;;;;;12.73;2.67;;;17.20;1.00;;;;;;5016274;28;20053;-65
2022/09/16 12:29:27;;;;;;;6.60;2.10;;;16.90;26.90;;;;;;5016029;28;20114;-65
2022/09/16 12:32:00;;;;;;;10.32;2.00;;;16.70;54.50;;;;;;5009378;28;20057;-65
2022/09/16 12:34:38;;;;;;;18.48;2.40;;;16.60;66.40;;;;;;5016126;28;20076;-64
2022/09/16 12:37:20;;;;;;;14.80;2.47;;;16.60;99.90;;;;;;5016495;28;20102;-65
2022/09/16 12:39:48;;;;;;;8.88;1.90;;;16.60;99.90;;;;;;5016106;28;20042;-65
2022/09/16 12:42:28;;;;;;;8.98;1.98;;;16.70;99.90;;;;;;5015683;28;20056;-65
2022/09/16 12:45:15;;;;;;;9.90;1.60;;;16.70;99.90;;;;;;5015843;28;20037;-65
2022/09/16 12:47:59;;;;;;;;;;;16.80;87.80;;;;;;5016257;28;20116;-65
2022/09/16 12:50:53;;;;;;;10.85;2.35;;;16.80;64.00;;;;;;5032490;28;20390;-65
2022/09/16 12:53:31;;;;;;;8.88;2.28;;;16.90;72.40;;;;;;5012051;28;20037;-65
2022/09/16 12:56:17;;;;;;;5.15;1.30;;;16.80;27.40;;;;;;5015316;28;20043;-64
2022/09/16 12:58:55;;;;;;;10.63;2.25;;;16.60;1.40;;;;;;5015279;28;20435;-65
2022/09/16 13:01:29;;;;;;;9.57;2.80;;;16.60;26.20;;;;;;5014999;28;20049;-64
2022/09/16 13:03:59;;;;;;;14.23;2.58;;;16.60;16.60;;;;;;5033090;28;20110;-65
2022/09/16 13:06:29;;;;;;;7.15;1.85;;;16.90;34.30;;;;;;5015342;28;20041;-66
2022/09/16 13:08:55;;;;;;;15.38;2.42;;;17.00;15.80;;;;;;5014796;28;20053;-65
2022/09/16 13:11:24;;;;;;;6.43;2.28;;;17.10;15.90;;;;;;5014838;28;20135;-64
2022/09/16 13:13:53;;;;;;;14.20;2.60;;;16.90;1.30;;;;;;5032795;28;20073;-66
2022/09/16 13:16:34;;;;;;;12.40;2.28;;;16.70;1.00;;;;;;5015446;28;20071;-66